createdAt,value
2019-05-10T00:03:08.225Z,90.50
2019-05-10T00:05:40.407Z,90.50
2019-05-10T00:08:13.226Z,90.50
2019-05-10T00:10:45.193Z,90.50
2019-05-10T00:13:17.210Z,90.50
2019-05-10T00:15:48.128Z,90.60
2019-05-10T00:18:19.016Z,90.50
2019-05-10T00:20:51.037Z,90.50
2019-05-10T00:23:21.973Z,90.40
2019-05-10T00:25:52.852Z,90.40
2019-05-10T00:28:23.907Z,90.40
2019-05-10T00:30:54.708Z,90.40
2019-05-10T00:33:25.467Z,90.40
2019-05-10T00:35:56.260Z,90.30
2019-05-10T00:38:27.324Z,90.30
2019-05-10T00:40:58.103Z,90.20
2019-05-10T00:43:28.920Z,90.20
2019-05-10T00:45:59.779Z,90.20
2019-05-10T00:48:31.403Z,90.10
2019-05-10T00:51:02.263Z,90.10
2019-05-10T00:53:33.010Z,90.10
2019-05-10T00:56:03.823Z,90.10
2019-05-10T00:58:34.833Z,90.10
2019-05-10T01:01:05.682Z,90.00
2019-05-10T01:03:36.688Z,90.00
2019-05-10T01:06:07.536Z,90.00
2019-05-10T01:08:38.428Z,89.90
2019-05-10T01:11:09.220Z,89.90
2019-05-10T01:13:40.142Z,90.00
2019-05-10T01:16:11.102Z,89.70
2019-05-10T01:18:41.862Z,89.40
2019-05-10T01:21:12.953Z,89.50
2019-05-10T01:23:44.038Z,89.40
2019-05-10T01:26:14.971Z,89.50
2019-05-10T01:28:46.263Z,89.50
2019-05-10T01:31:17.336Z,89.70
2019-05-10T01:33:48.278Z,89.70
2019-05-10T01:36:19.303Z,89.60
2019-05-10T01:38:50.808Z,89.40
2019-05-10T01:41:21.572Z,89.30
2019-05-10T01:43:53.105Z,89.10
2019-05-10T01:46:24.192Z,89.30
2019-05-10T01:48:55.160Z,89.10
2019-05-10T01:51:31.412Z,89.10
2019-05-10T01:54:02.394Z,89.50
2019-05-10T01:56:33.446Z,89.50
2019-05-10T01:59:04.596Z,89.40
2019-05-10T02:01:37.629Z,89.20
2019-05-10T02:04:08.764Z,89.20
2019-05-10T02:06:39.778Z,89.30
2019-05-10T02:09:10.967Z,89.40
2019-05-10T02:11:45.176Z,89.30
2019-05-10T02:14:15.796Z,89.20
2019-05-10T02:16:46.664Z,89.40
2019-05-10T02:19:18.327Z,89.30
2019-05-10T02:21:51.238Z,89.40
2019-05-10T02:24:21.936Z,89.20
2019-05-10T02:26:55.700Z,90.00
2019-05-10T02:29:28.252Z,89.10
2019-05-10T02:31:58.666Z,89.10
2019-05-10T02:34:29.666Z,89.10
2019-05-10T02:37:00.556Z,89.10
2019-05-10T02:39:32.614Z,89.30
2019-05-10T02:42:03.769Z,89.10
2019-05-10T02:44:35.348Z,89.00
2019-05-10T02:47:11.203Z,89.00
2019-05-10T02:49:42.034Z,88.90
2019-05-10T02:52:12.889Z,88.80
2019-05-10T02:54:45.849Z,88.60
2019-05-10T02:57:17.605Z,88.60
2019-05-10T02:59:50.204Z,88.80
2019-05-10T03:02:22.128Z,88.60
2019-05-10T03:04:55.198Z,88.50
2019-05-10T03:07:27.555Z,88.50
2019-05-10T03:10:02.206Z,88.60
2019-05-10T03:12:33.593Z,88.50
2019-05-10T03:15:06.384Z,88.50
2019-05-10T03:17:39.817Z,88.40
2019-05-10T03:20:11.843Z,88.10
2019-05-10T03:22:45.237Z,88.20
2019-05-10T03:25:16.814Z,88.10
2019-05-10T03:27:48.033Z,88.00
2019-05-10T03:30:20.090Z,87.90
2019-05-10T03:32:51.140Z,87.90
2019-05-10T03:35:21.975Z,87.70
2019-05-10T03:37:53.527Z,87.70
2019-05-10T03:40:24.558Z,87.50
2019-05-10T03:42:55.807Z,87.20
2019-05-10T03:45:27.612Z,87.10
2019-05-10T03:48:00.225Z,87.00
2019-05-10T03:50:31.134Z,87.00
2019-05-10T03:53:02.004Z,86.80
2019-05-10T03:55:33.425Z,86.80
2019-05-10T03:58:04.379Z,86.90
2019-05-10T04:00:35.247Z,86.80
2019-05-10T04:03:06.180Z,86.70
2019-05-10T04:05:36.937Z,86.50
2019-05-10T04:08:08.648Z,86.50
2019-05-10T04:10:39.591Z,86.50
2019-05-10T04:13:11.134Z,86.50
2019-05-10T04:15:42.120Z,86.40
2019-05-10T04:18:13.600Z,86.20
2019-05-10T04:20:44.263Z,86.20
2019-05-10T04:23:15.174Z,86.20
2019-05-10T04:25:46.157Z,86.10
2019-05-10T04:28:17.245Z,86.30
2019-05-10T04:30:49.088Z,86.10
2019-05-10T04:33:20.287Z,86.10
2019-05-10T04:35:51.165Z,86.00
2019-05-10T04:38:22.248Z,86.00
2019-05-10T04:40:53.409Z,85.90
2019-05-10T04:43:24.204Z,86.50
2019-05-10T04:45:55.084Z,86.50
2019-05-10T04:48:26.129Z,85.50
2019-05-10T04:50:57.006Z,85.30
2019-05-10T04:53:28.766Z,85.20
2019-05-10T04:56:03.520Z,85.10
2019-05-10T04:58:34.641Z,84.90
2019-05-10T05:01:05.530Z,84.70
2019-05-10T05:03:36.413Z,84.40
2019-05-10T05:06:07.367Z,84.30
2019-05-10T05:08:38.420Z,84.30
2019-05-10T05:11:09.256Z,84.10
2019-05-10T05:13:40.631Z,84.00
2019-05-10T05:16:11.544Z,84.00
2019-05-10T05:18:42.518Z,83.70
2019-05-10T05:21:37.262Z,83.60
2019-05-10T05:24:09.514Z,83.50
2019-05-10T05:26:40.512Z,83.60
2019-05-10T05:29:19.226Z,83.60
2019-05-10T05:31:44.624Z,83.40
2019-05-10T05:34:15.857Z,83.20
2019-05-10T05:37:05.235Z,83.00
2019-05-10T05:39:37.706Z,82.90
2019-05-10T05:42:08.639Z,82.60
2019-05-10T05:44:40.922Z,82.40
2019-05-10T05:47:11.797Z,82.20
2019-05-10T05:49:42.900Z,81.60
2019-05-10T05:52:13.729Z,81.40
2019-05-10T05:54:45.082Z,81.70
2019-05-10T05:57:16.462Z,81.20
2019-05-10T05:59:49.271Z,81.10
2019-05-10T06:02:33.639Z,81.10
2019-05-10T06:05:04.430Z,81.10
2019-05-10T06:07:37.995Z,80.70
2019-05-10T06:10:10.235Z,80.80
2019-05-10T06:12:44.463Z,79.60
2019-05-10T06:15:13.073Z,79.80
2019-05-10T06:17:43.957Z,79.60
2019-05-10T06:20:15.348Z,79.50
2019-05-10T06:23:04.194Z,79.70
2019-05-10T06:25:18.711Z,79.90
2019-05-10T06:27:49.686Z,79.30
2019-05-10T06:30:20.825Z,79.50
2019-05-10T06:32:53.236Z,79.80
2019-05-10T06:35:26.123Z,80.00
2019-05-10T06:37:57.046Z,80.90
2019-05-10T06:40:35.775Z,80.00
2019-05-10T06:43:00.132Z,79.90
2019-05-10T06:45:31.390Z,80.00
2019-05-10T06:48:02.481Z,79.90
2019-05-10T06:50:33.291Z,79.90
2019-05-10T06:53:07.955Z,79.70
2019-05-10T06:55:36.693Z,78.30
2019-05-10T06:58:07.567Z,78.00
2019-05-10T07:00:44.509Z,78.50
2019-05-10T07:03:10.793Z,77.70
2019-05-10T07:05:41.785Z,77.80
2019-05-10T07:08:17.536Z,78.10
2019-05-10T07:10:44.742Z,77.30
2019-05-10T07:13:15.671Z,78.20
2019-05-10T07:15:46.495Z,78.10
2019-05-10T07:18:22.644Z,77.00
2019-05-10T07:20:49.610Z,77.60
2019-05-10T07:23:20.444Z,77.20
2019-05-10T07:25:51.279Z,77.70
2019-05-10T07:28:22.344Z,77.70
2019-05-10T07:30:53.326Z,77.60
2019-05-10T07:33:24.470Z,77.90
2019-05-10T07:35:55.156Z,77.80
2019-05-10T07:38:31.013Z,77.60
2019-05-10T07:40:59.043Z,76.50
2019-05-10T07:43:30.044Z,76.90
2019-05-10T07:46:06.347Z,76.50
2019-05-10T07:48:33.948Z,76.00
2019-05-10T07:51:04.704Z,76.00
2019-05-10T07:53:35.877Z,76.30
2019-05-10T07:56:08.071Z,76.00
2019-05-10T07:58:43.423Z,76.10
2019-05-10T08:01:11.419Z,76.20
2019-05-10T08:03:48.257Z,76.40
2019-05-10T08:06:15.553Z,76.00
2019-05-10T08:08:46.664Z,76.40
2019-05-10T08:11:19.109Z,76.60
2019-05-10T08:13:49.897Z,76.70
2019-05-10T08:16:23.011Z,77.10
2019-05-10T08:18:55.677Z,77.40
2019-05-10T08:21:26.494Z,76.90
2019-05-10T08:23:59.109Z,76.80
2019-05-10T08:26:29.610Z,77.00
2019-05-10T08:29:02.123Z,77.30
2019-05-10T08:31:40.693Z,77.70
2019-05-10T08:34:05.112Z,77.50
2019-05-10T08:36:37.290Z,77.80
2019-05-10T08:39:10.950Z,77.90
2019-05-10T08:41:42.760Z,77.80
2019-05-10T08:44:19.429Z,77.80
2019-05-10T08:46:45.233Z,77.50
2019-05-10T08:49:21.775Z,77.80
2019-05-10T08:51:49.453Z,78.00
2019-05-10T08:54:22.169Z,78.40
2019-05-10T08:57:00.869Z,78.40
2019-05-10T08:59:26.748Z,78.50
2019-05-10T09:01:57.594Z,78.10
2019-05-10T09:04:33.469Z,78.20
2019-05-10T09:07:02.668Z,78.20
2019-05-10T09:09:33.887Z,78.20
2019-05-10T09:12:09.022Z,77.80
2019-05-10T09:14:36.966Z,77.80
2019-05-10T09:17:08.182Z,77.90
2019-05-10T09:19:41.910Z,78.00
2019-05-10T09:22:12.492Z,77.50
2019-05-10T09:24:48.606Z,77.40
2019-05-10T09:27:15.646Z,77.40
2019-05-10T09:29:46.603Z,77.40
2019-05-10T09:32:23.449Z,77.70
2019-05-10T09:34:54.149Z,77.40
2019-05-10T09:37:31.874Z,77.50
2019-05-10T09:40:09.359Z,77.50
2019-05-10T09:42:39.910Z,77.50
2019-05-10T09:45:09.697Z,77.60
2019-05-10T09:47:43.070Z,77.50
2019-05-10T09:50:12.692Z,77.50
2019-05-10T09:52:43.709Z,77.50
2019-05-10T09:55:17.665Z,77.70
2019-05-10T09:57:58.368Z,77.60
2019-05-10T10:00:30.994Z,77.70
2019-05-10T10:03:02.065Z,77.70
2019-05-10T10:05:32.921Z,77.70
2019-05-10T10:08:08.494Z,77.80
2019-05-10T10:10:37.215Z,77.80
2019-05-10T10:13:13.374Z,78.00
2019-05-10T10:15:40.266Z,78.00
2019-05-10T10:18:12.597Z,78.20
2019-05-10T10:20:45.146Z,78.40
2019-05-10T10:23:17.289Z,78.50
2019-05-10T10:25:48.370Z,78.60
2019-05-10T10:28:22.571Z,78.70
2019-05-10T10:30:58.904Z,78.80
2019-05-10T10:33:26.295Z,78.90
2019-05-10T10:36:04.346Z,79.10
2019-05-10T10:38:31.093Z,79.30
2019-05-10T10:41:00.645Z,80.20
2019-05-10T10:43:31.595Z,79.40
2019-05-10T10:46:02.629Z,79.50
2019-05-10T10:48:33.355Z,79.60
2019-05-10T10:51:04.152Z,79.80
2019-05-10T10:53:34.826Z,79.90
2019-05-10T10:56:07.641Z,80.00
2019-05-10T10:58:37.890Z,80.00
2019-05-10T11:01:19.879Z,80.40
2019-05-10T11:03:41.965Z,80.40
2019-05-10T11:06:15.300Z,80.60
2019-05-10T11:08:45.062Z,81.50
2019-05-10T11:11:15.985Z,80.90
2019-05-10T11:13:58.003Z,81.80
2019-05-10T11:16:20.752Z,81.30
2019-05-10T11:18:52.052Z,81.20
2019-05-10T11:21:23.301Z,81.50
2019-05-10T11:23:55.411Z,81.40
2019-05-10T11:26:26.776Z,81.50
2019-05-10T11:28:58.472Z,81.80
2019-05-10T11:31:31.172Z,81.80
2019-05-10T11:34:01.688Z,82.30
2019-05-10T11:36:32.666Z,82.20
2019-05-10T11:39:05.842Z,82.70
2019-05-10T11:41:35.699Z,82.50
2019-05-10T11:44:09.074Z,82.80
2019-05-10T11:46:41.473Z,82.80
2019-05-10T11:49:11.021Z,82.80
2019-05-10T11:51:41.921Z,83.20
2019-05-10T11:54:12.859Z,83.40
2019-05-10T11:56:43.668Z,83.20
2019-05-10T11:59:16.494Z,83.50
2019-05-10T12:01:57.250Z,83.60
2019-05-10T12:04:24.038Z,83.60
2019-05-10T12:06:51.481Z,83.50
2019-05-10T12:09:24.461Z,83.90
2019-05-10T12:11:56.832Z,84.30
2019-05-10T12:14:26.982Z,84.60
2019-05-10T12:16:57.734Z,84.20
2019-05-10T12:19:36.690Z,84.10
2019-05-10T12:22:04.564Z,84.10
2019-05-10T12:24:46.822Z,84.30
2019-05-10T12:27:18.632Z,84.30
2019-05-10T12:29:37.338Z,84.30
2019-05-10T12:32:10.282Z,84.60
2019-05-10T12:34:41.005Z,84.60
2019-05-10T12:37:12.045Z,84.50
2019-05-10T12:39:42.918Z,84.60
2019-05-10T12:42:14.426Z,84.50
2019-05-10T12:44:47.968Z,84.70
2019-05-10T12:47:17.462Z,84.90
2019-05-10T12:49:48.139Z,85.50
2019-05-10T12:52:22.099Z,85.10
2019-05-10T12:54:51.283Z,85.50
2019-05-10T12:57:21.991Z,85.20
2019-05-10T12:59:52.851Z,85.30
2019-05-10T13:02:24.230Z,85.20
2019-05-10T13:04:55.002Z,84.90
2019-05-10T13:07:25.902Z,84.90
2019-05-10T13:10:03.620Z,85.10
2019-05-10T13:12:29.150Z,85.30
2019-05-10T13:14:59.910Z,85.30
2019-05-10T13:17:30.916Z,85.50
2019-05-10T13:20:03.678Z,85.60
2019-05-10T13:22:37.586Z,85.70
2019-05-10T13:25:08.647Z,86.00
2019-05-10T13:27:39.407Z,86.90
2019-05-10T13:30:12.791Z,86.40
2019-05-10T13:32:43.579Z,87.00
2019-05-10T13:35:14.651Z,86.80
2019-05-10T13:37:45.425Z,86.60
2019-05-10T13:40:16.442Z,86.80
2019-05-10T13:42:47.357Z,86.50
2019-05-10T13:45:18.152Z,86.40
2019-05-10T13:47:49.069Z,86.50
2019-05-10T13:50:19.888Z,86.70
2019-05-10T13:52:50.595Z,87.10
2019-05-10T13:55:21.289Z,86.90
2019-05-10T13:57:54.116Z,87.10
2019-05-10T14:00:33.013Z,87.00
2019-05-10T14:02:57.145Z,87.80
2019-05-10T14:05:28.073Z,88.00
2019-05-10T14:07:58.847Z,87.80
2019-05-10T14:10:29.644Z,87.80
2019-05-10T14:13:02.323Z,87.60
2019-05-10T14:15:32.937Z,87.90
2019-05-10T14:18:03.903Z,87.80
2019-05-10T14:20:34.585Z,87.80
2019-05-10T14:23:05.597Z,87.80
2019-05-10T14:25:38.651Z,87.70
2019-05-10T14:28:09.836Z,87.70
2019-05-10T14:30:40.861Z,87.60
2019-05-10T14:33:14.807Z,87.60
2019-05-10T14:35:44.117Z,87.50
2019-05-10T14:38:15.052Z,87.60
2019-05-10T14:40:45.926Z,87.70
2019-05-10T14:43:16.774Z,87.50
2019-05-10T14:45:47.727Z,87.50
2019-05-10T14:48:28.085Z,87.50
2019-05-10T14:50:51.437Z,87.80
2019-05-10T14:53:25.595Z,87.60
2019-05-10T14:55:54.294Z,87.70
2019-05-10T14:58:25.276Z,87.70
2019-05-10T15:00:56.047Z,87.90
2019-05-10T15:03:26.980Z,88.80
2019-05-10T15:06:01.506Z,88.00
2019-05-10T15:08:30.298Z,88.20
2019-05-10T15:11:01.254Z,88.20
2019-05-10T15:13:34.931Z,88.20
2019-05-10T15:16:07.502Z,88.10
2019-05-10T15:18:36.914Z,88.20
2019-05-10T15:21:07.762Z,88.30
2019-05-10T15:23:38.673Z,88.20
2019-05-10T15:26:12.093Z,88.50
2019-05-10T15:28:42.647Z,88.50
2019-05-10T15:31:13.804Z,88.50
2019-05-10T15:33:44.664Z,88.70
2019-05-10T15:36:15.643Z,88.70
2019-05-10T15:38:50.343Z,88.70
2019-05-10T15:41:22.282Z,88.80
2019-05-10T15:43:53.440Z,88.90
2019-05-10T15:46:23.335Z,88.80
2019-05-10T15:48:54.905Z,88.90
2019-05-10T15:51:35.757Z,89.00
2019-05-10T15:54:04.644Z,89.00
2019-05-10T15:56:30.235Z,89.00
2019-05-10T15:59:01.017Z,89.10
2019-05-10T16:01:31.790Z,89.10
2019-05-10T16:04:02.529Z,89.20
2019-05-10T16:06:37.659Z,89.20
2019-05-10T16:09:17.139Z,89.10
2019-05-10T16:11:39.002Z,89.00
2019-05-10T16:14:09.929Z,88.90
2019-05-10T16:16:40.757Z,88.80
2019-05-10T16:19:13.053Z,88.80
2019-05-10T16:21:46.730Z,88.90
2019-05-10T16:24:25.358Z,88.90
2019-05-10T16:26:48.302Z,88.90
2019-05-10T16:29:19.254Z,88.90
2019-05-10T16:31:50.056Z,88.90
2019-05-10T16:34:26.466Z,89.30
2019-05-10T16:36:53.605Z,89.20
2019-05-10T16:39:24.188Z,89.50
2019-05-10T16:41:55.264Z,89.60
2019-05-10T16:44:26.266Z,89.40
2019-05-10T16:46:57.663Z,89.30
2019-05-10T16:49:28.534Z,89.60
2019-05-10T16:51:59.550Z,89.60
2019-05-10T16:54:30.620Z,89.90
2019-05-10T16:57:01.525Z,89.80
2019-05-10T16:59:35.147Z,89.70
2019-05-10T17:02:06.521Z,89.70
2019-05-10T17:04:39.592Z,89.80
2019-05-10T17:07:13.125Z,89.70
2019-05-10T17:09:42.829Z,89.70
2019-05-10T17:12:13.644Z,89.90
2019-05-10T17:14:44.593Z,89.70
2019-05-10T17:17:15.434Z,89.60
2019-05-10T17:19:46.294Z,89.60
2019-05-10T17:22:17.211Z,89.60
2019-05-10T17:24:48.075Z,89.70
2019-05-10T17:27:19.474Z,89.50
2019-05-10T17:29:51.367Z,89.50
2019-05-10T17:32:24.571Z,89.20
2019-05-10T17:34:54.512Z,88.90
2019-05-10T17:37:29.999Z,88.80
2019-05-10T17:39:57.731Z,88.50
2019-05-10T17:42:28.691Z,88.30
2019-05-10T17:45:01.947Z,88.20
2019-05-10T17:47:32.290Z,88.20
2019-05-10T17:50:03.866Z,88.00
2019-05-10T17:52:34.839Z,87.80
2019-05-10T17:55:11.048Z,87.80
2019-05-10T17:57:39.755Z,87.80
2019-05-10T18:00:11.283Z,87.70
2019-05-10T18:02:42.246Z,87.70
2019-05-10T18:05:13.379Z,87.70
2019-05-10T18:07:44.239Z,87.80
2019-05-10T18:10:16.695Z,87.80
2019-05-10T18:12:47.429Z,87.90
2019-05-10T18:15:18.425Z,88.00
2019-05-10T18:17:49.792Z,88.00
2019-05-10T18:20:20.871Z,88.00
2019-05-10T18:22:51.781Z,88.00
2019-05-10T18:25:22.718Z,88.00
2019-05-10T18:27:53.598Z,88.20
2019-05-10T18:30:24.413Z,88.30
2019-05-10T18:32:55.410Z,88.20
2019-05-10T18:35:26.249Z,88.30
2019-05-10T18:37:59.538Z,88.30
2019-05-10T18:40:31.428Z,88.30
2019-05-10T18:43:04.074Z,88.50
2019-05-10T18:45:33.681Z,88.40
2019-05-10T18:48:04.492Z,88.40
2019-05-10T18:50:39.635Z,88.60
2019-05-10T18:53:07.491Z,88.60
2019-05-10T18:55:38.252Z,88.60
2019-05-10T18:58:09.257Z,88.70
2019-05-10T19:00:40.250Z,88.80
2019-05-10T19:03:11.234Z,88.80
2019-05-10T19:05:42.029Z,88.70
2019-05-10T19:08:13.014Z,88.60
2019-05-10T19:10:43.955Z,88.60
2019-05-10T19:13:15.222Z,88.60
2019-05-10T19:15:52.104Z,88.60
2019-05-10T19:18:23.214Z,88.60
2019-05-10T19:20:53.373Z,88.40
2019-05-10T19:23:22.867Z,88.40
2019-05-10T19:25:54.110Z,88.50
2019-05-10T19:28:26.707Z,88.50
2019-05-10T19:30:58.715Z,88.40
2019-05-10T19:33:36.150Z,88.40
2019-05-10T19:36:01.526Z,88.30
2019-05-10T19:38:32.399Z,88.20
2019-05-10T19:41:03.188Z,88.30
2019-05-10T19:43:34.371Z,88.60
2019-05-10T19:46:05.159Z,88.40
2019-05-10T19:48:36.965Z,88.40
2019-05-10T19:51:09.715Z,88.40
2019-05-10T19:53:42.244Z,88.50
2019-05-10T19:56:12.464Z,88.50
2019-05-10T19:58:43.673Z,88.50
2019-05-10T20:01:14.563Z,88.60
2019-05-10T20:03:45.457Z,88.50
2019-05-10T20:06:16.362Z,88.40
2019-05-10T20:08:47.136Z,88.30
2019-05-10T20:11:18.051Z,88.50
2019-05-10T20:13:49.028Z,88.60
2019-05-10T20:16:19.965Z,88.60
2019-05-10T20:18:50.889Z,88.60
2019-05-10T20:21:21.656Z,88.50
2019-05-10T20:23:52.514Z,88.60
2019-05-10T20:26:23.368Z,88.70
2019-05-10T20:28:54.201Z,88.80
2019-05-10T20:31:25.063Z,88.70
2019-05-10T20:33:55.917Z,88.70
2019-05-10T20:36:26.832Z,89.10
2019-05-10T20:39:00.786Z,88.70
2019-05-10T20:41:29.896Z,88.60
2019-05-10T20:44:00.709Z,88.70
2019-05-10T20:46:31.520Z,88.80
2019-05-10T20:49:02.337Z,88.70
2019-05-10T20:51:33.126Z,88.70
2019-05-10T20:54:04.311Z,88.50
2019-05-10T20:56:35.222Z,88.60
2019-05-10T20:59:06.057Z,88.90
2019-05-10T21:01:37.022Z,88.80
2019-05-10T21:04:07.974Z,88.90
2019-05-10T21:06:38.896Z,89.00
2019-05-10T21:09:09.808Z,88.80
2019-05-10T21:11:40.689Z,88.90
2019-05-10T21:14:11.661Z,89.10
2019-05-10T21:16:42.588Z,89.10
2019-05-10T21:19:13.398Z,89.30
2019-05-10T21:21:44.116Z,89.30
2019-05-10T21:24:15.087Z,89.30
2019-05-10T21:26:46.152Z,89.30
2019-05-10T21:29:17.089Z,89.20
2019-05-10T21:31:47.938Z,89.10
2019-05-10T21:34:18.717Z,89.10
2019-05-10T21:36:49.606Z,89.30
2019-05-10T21:39:20.202Z,89.30
2019-05-10T21:41:51.116Z,88.50
2019-05-10T21:44:22.050Z,89.30
2019-05-10T21:46:53.774Z,89.10
2019-05-10T21:49:24.912Z,88.90
2019-05-10T21:51:55.870Z,88.90
2019-05-10T21:54:26.744Z,88.80
2019-05-10T21:56:57.599Z,88.80
2019-05-10T21:59:28.420Z,88.80
2019-05-10T22:01:59.154Z,88.90
2019-05-10T22:04:30.057Z,89.00
2019-05-10T22:07:00.730Z,89.00
2019-05-10T22:09:31.623Z,88.90
2019-05-10T22:12:02.430Z,88.90
2019-05-10T22:14:33.271Z,89.00
2019-05-10T22:17:04.103Z,89.20
2019-05-10T22:19:34.946Z,89.20
2019-05-10T22:22:05.892Z,89.20
2019-05-10T22:24:36.567Z,88.90
2019-05-10T22:27:07.452Z,89.00
